createdAt,value
2024-02-15T00:00:05.008Z,0.40
2024-02-15T00:02:32.755Z,0.20
2024-02-15T00:05:04.212Z,0.30
2024-02-15T00:07:37.097Z,0.10
2024-02-15T00:10:14.831Z,0.20
2024-02-15T00:12:43.284Z,0.10
2024-02-15T00:15:12.126Z,0.20
2024-02-15T00:17:39.774Z,0.13
2024-02-15T00:20:10.822Z,0.20
2024-02-15T00:22:38.854Z,0.20
2024-02-15T00:25:07.639Z,0.10
2024-02-15T00:27:35.942Z,0.10
2024-02-15T00:30:04.776Z,0.20
2024-02-15T00:32:32.649Z,0.20
2024-02-15T00:35:00.622Z,0.28
2024-02-15T00:37:28.296Z,0.30
2024-02-15T00:39:55.687Z,0.25
2024-02-15T00:42:23.088Z,0.47
2024-02-15T00:44:51.250Z,0.40
2024-02-15T00:47:22.221Z,0.45
2024-02-15T00:49:51.434Z,0.50
2024-02-15T00:52:20.077Z,0.60
2024-02-15T00:54:48.300Z,0.50
2024-02-15T00:57:15.675Z,0.60
2024-02-15T00:59:43.099Z,0.93
2024-02-15T01:02:10.442Z,0.85
2024-02-15T01:04:37.807Z,0.90
2024-02-15T01:07:05.293Z,1.08
2024-02-15T01:09:32.662Z,0.50
2024-02-15T01:12:00.092Z,0.68
2024-02-15T01:14:31.238Z,0.70
2024-02-15T01:16:59.036Z,0.68
2024-02-15T01:19:26.483Z,0.52
2024-02-15T01:21:54.861Z,0.70
2024-02-15T01:24:22.234Z,0.50
2024-02-15T01:26:50.395Z,0.50
2024-02-15T01:29:17.807Z,0.50
2024-02-15T01:31:45.714Z,0.50
2024-02-15T01:34:13.219Z,0.65
2024-02-15T01:36:40.848Z,0.57
2024-02-15T01:39:08.776Z,0.50
2024-02-15T01:41:36.233Z,0.40
2024-02-15T01:44:05.204Z,0.50
2024-02-15T01:46:32.815Z,0.60
2024-02-15T01:49:00.458Z,0.60
2024-02-15T01:51:28.648Z,0.80
2024-02-15T01:53:56.706Z,0.93
2024-02-15T01:56:26.411Z,0.70
2024-02-15T01:58:54.447Z,0.88
2024-02-15T02:01:23.130Z,0.80
2024-02-15T02:03:50.492Z,0.80
2024-02-15T02:06:17.918Z,0.60
2024-02-15T02:08:45.239Z,0.73
2024-02-15T02:11:12.712Z,0.88
2024-02-15T02:13:40.017Z,0.90
2024-02-15T02:16:28.711Z,2.42
2024-02-15T02:19:00.308Z,0.80
2024-02-15T02:21:29.375Z,0.95
2024-02-15T02:24:01.710Z,1.05
2024-02-15T02:26:29.785Z,1.02
2024-02-15T02:28:57.303Z,0.70
2024-02-15T02:31:24.594Z,0.63
2024-02-15T02:33:54.581Z,0.50
2024-02-15T02:36:22.842Z,0.40
2024-02-15T02:38:53.052Z,0.50
2024-02-15T02:41:20.825Z,0.40
2024-02-15T02:43:48.293Z,0.30
2024-02-15T02:46:15.783Z,0.30
2024-02-15T02:48:43.429Z,0.13
2024-02-15T02:51:11.005Z,0.10
2024-02-15T02:53:38.465Z,0.10
2024-02-15T02:56:06.073Z,0.00
2024-02-15T02:58:33.542Z,0.10
2024-02-15T03:01:03.649Z,0.10
2024-02-15T03:03:31.676Z,0.05
2024-02-15T03:05:59.734Z,0.00
2024-02-15T03:08:27.208Z,0.03
2024-02-15T03:10:54.563Z,0.00
2024-02-15T03:13:21.995Z,0.00
2024-02-15T03:15:49.464Z,0.00
2024-02-15T03:18:17.760Z,0.00
2024-02-15T03:20:45.591Z,0.10
2024-02-15T03:23:13.201Z,0.00
2024-02-15T03:25:40.594Z,0.00
2024-02-15T03:28:07.951Z,0.00
2024-02-15T03:30:36.149Z,0.00
2024-02-15T03:33:07.798Z,0.10
2024-02-15T03:35:36.194Z,0.00
2024-02-15T03:38:04.003Z,0.00
2024-02-15T03:40:32.224Z,0.00
2024-02-15T03:42:59.979Z,0.10
2024-02-15T03:45:28.064Z,0.00
2024-02-15T03:47:57.565Z,0.00
2024-02-15T03:50:25.295Z,0.00
2024-02-15T03:52:52.790Z,0.00
2024-02-15T03:55:21.101Z,0.10
2024-02-15T03:57:48.574Z,0.10
2024-02-15T04:00:22.081Z,0.10
2024-02-15T04:02:50.376Z,0.08
2024-02-15T04:05:20.205Z,0.10
2024-02-15T04:07:47.905Z,0.10
2024-02-15T04:10:15.536Z,0.85
2024-02-15T04:12:51.770Z,0.10
2024-02-15T04:15:19.885Z,0.00
2024-02-15T04:17:48.152Z,0.00
2024-02-15T04:20:17.287Z,0.10
2024-02-15T04:22:45.578Z,0.40
2024-02-15T04:25:18.182Z,0.10
2024-02-15T04:27:50.954Z,0.10
2024-02-15T04:30:19.408Z,0.20
2024-02-15T04:32:48.226Z,0.20
2024-02-15T04:35:16.106Z,0.20
2024-02-15T04:37:43.797Z,0.20
2024-02-15T04:40:12.256Z,0.30
2024-02-15T04:42:43.032Z,0.30
2024-02-15T04:45:15.386Z,0.50
2024-02-15T04:47:58.595Z,0.50
2024-02-15T04:50:27.184Z,0.35
2024-02-15T04:52:54.732Z,0.40
2024-02-15T04:55:24.029Z,0.80
2024-02-15T04:57:56.559Z,0.47
2024-02-15T05:00:27.091Z,1.15
2024-02-15T05:02:54.723Z,0.80
2024-02-15T05:05:23.144Z,0.70
2024-02-15T05:07:51.724Z,0.50
2024-02-15T05:10:19.298Z,1.00
2024-02-15T05:12:49.316Z,0.75
2024-02-15T05:15:19.745Z,1.40
2024-02-15T05:17:49.476Z,0.75
2024-02-15T05:20:17.355Z,0.50
2024-02-15T05:22:50.086Z,0.90
2024-02-15T05:25:25.160Z,0.80
2024-02-15T05:27:55.706Z,0.70
2024-02-15T05:30:24.549Z,1.35
2024-02-15T05:32:54.886Z,0.80
2024-02-15T05:35:23.215Z,2.10
2024-02-15T05:37:50.740Z,1.55
2024-02-15T05:40:18.988Z,2.15
2024-02-15T05:42:47.514Z,2.00
2024-02-15T05:45:27.561Z,2.28
2024-02-15T05:47:56.187Z,2.08
2024-02-15T05:50:25.326Z,2.67
2024-02-15T05:52:56.066Z,2.00
2024-02-15T05:55:23.737Z,2.42
2024-02-15T05:57:51.122Z,2.30
2024-02-15T06:00:22.601Z,1.98
2024-02-15T06:02:52.286Z,2.45
2024-02-15T06:05:21.353Z,1.55
2024-02-15T06:07:49.399Z,1.33
2024-02-15T06:10:17.294Z,1.73
2024-02-15T06:12:45.315Z,1.50
2024-02-15T06:15:19.179Z,1.60
2024-02-15T06:17:47.863Z,2.33
2024-02-15T06:20:19.328Z,1.67
2024-02-15T06:22:48.015Z,1.13
2024-02-15T06:25:16.689Z,1.92
2024-02-15T06:27:44.394Z,1.30
2024-02-15T06:30:31.217Z,1.55
2024-02-15T06:33:17.880Z,1.30
2024-02-15T06:36:03.930Z,1.20
2024-02-15T06:38:49.812Z,0.95
2024-02-15T06:41:17.296Z,1.58
2024-02-15T06:43:44.637Z,0.82
2024-02-15T06:46:12.291Z,1.27
2024-02-15T06:48:45.518Z,1.05
2024-02-15T06:51:17.089Z,1.10
2024-02-15T06:53:45.036Z,0.93
2024-02-15T06:56:13.362Z,0.88
2024-02-15T06:58:44.418Z,1.02
2024-02-15T07:01:14.788Z,1.10
2024-02-15T07:03:42.693Z,0.98
2024-02-15T07:06:10.216Z,0.90
2024-02-15T07:08:37.662Z,1.00
2024-02-15T07:11:05.530Z,1.40
2024-02-15T07:13:33.317Z,1.13
2024-02-15T07:16:00.892Z,1.30
2024-02-15T07:18:29.794Z,1.00
2024-02-15T07:21:01.026Z,1.30
2024-02-15T07:23:28.804Z,1.08
2024-02-15T07:25:56.309Z,1.02
2024-02-15T07:28:23.729Z,1.10
2024-02-15T07:30:56.079Z,1.20
2024-02-15T07:33:25.384Z,0.73
2024-02-15T07:35:53.397Z,0.70
2024-02-15T07:38:24.128Z,0.90
2024-02-15T07:40:52.100Z,0.88
2024-02-15T07:43:19.620Z,0.63
2024-02-15T07:45:49.368Z,0.88
2024-02-15T07:48:16.966Z,0.95
2024-02-15T07:50:45.977Z,1.05
2024-02-15T07:53:14.805Z,1.40
2024-02-15T07:55:43.391Z,0.88
2024-02-15T07:58:11.192Z,0.70
2024-02-15T08:00:39.654Z,0.90
2024-02-15T08:03:07.289Z,0.70
2024-02-15T08:05:35.020Z,0.82
2024-02-15T08:08:02.860Z,0.82
2024-02-15T08:10:30.265Z,0.50
2024-02-15T08:12:59.600Z,0.98
2024-02-15T08:15:29.347Z,1.00
2024-02-15T08:17:57.734Z,0.90
2024-02-15T08:20:25.470Z,0.70
2024-02-15T08:22:52.842Z,1.25
2024-02-15T08:25:20.345Z,1.10
2024-02-15T08:27:51.758Z,1.80
2024-02-15T08:30:24.150Z,0.95
2024-02-15T08:32:56.156Z,0.85
2024-02-15T08:35:24.346Z,0.70
2024-02-15T08:37:54.056Z,0.82
2024-02-15T08:40:26.341Z,0.50
2024-02-15T08:42:54.121Z,0.70
2024-02-15T08:45:22.260Z,0.70
2024-02-15T08:47:51.349Z,0.65
2024-02-15T08:50:19.225Z,0.90
2024-02-15T08:52:48.207Z,0.90
2024-02-15T08:55:16.045Z,0.70
2024-02-15T08:57:45.709Z,0.70
2024-02-15T09:00:18.122Z,0.73
2024-02-15T09:02:46.421Z,0.75
2024-02-15T09:05:16.180Z,1.05
2024-02-15T09:07:44.773Z,0.63
2024-02-15T09:10:14.101Z,0.80
2024-02-15T09:12:43.304Z,0.65
2024-02-15T09:15:14.125Z,0.60
2024-02-15T09:17:41.994Z,0.60
2024-02-15T09:20:15.729Z,0.50
2024-02-15T09:22:45.559Z,0.50
2024-02-15T09:25:14.398Z,0.50
2024-02-15T09:27:42.308Z,0.75
2024-02-15T09:30:11.343Z,0.60
2024-02-15T09:32:42.673Z,0.70
2024-02-15T09:35:13.259Z,0.60
2024-02-15T09:37:45.643Z,0.63
2024-02-15T09:40:18.131Z,0.50
2024-02-15T09:42:46.282Z,0.57
2024-02-15T09:45:16.377Z,0.50
2024-02-15T09:47:44.727Z,0.40
2024-02-15T09:50:16.966Z,0.50
2024-02-15T09:52:52.111Z,0.50
2024-02-15T09:55:19.821Z,0.80
2024-02-15T09:57:48.391Z,0.40
2024-02-15T10:00:18.124Z,0.50
2024-02-15T10:02:51.369Z,0.50
2024-02-15T10:05:19.410Z,0.47
2024-02-15T10:07:47.674Z,0.40
2024-02-15T10:10:21.369Z,0.50
2024-02-15T10:12:52.500Z,1.20
2024-02-15T10:15:37.348Z,0.50
2024-02-15T10:18:11.920Z,0.50
2024-02-15T10:20:40.990Z,0.70
2024-02-15T10:23:12.403Z,0.50
2024-02-15T10:25:42.936Z,0.40
2024-02-15T10:28:13.113Z,1.42
2024-02-15T10:30:46.728Z,0.70
2024-02-15T10:33:31.217Z,0.50
2024-02-15T10:36:27.602Z,0.40
2024-02-15T10:39:02.894Z,0.40
2024-02-15T10:41:30.847Z,0.40
2024-02-15T10:43:58.468Z,0.77
2024-02-15T10:46:27.026Z,0.50
2024-02-15T10:48:55.045Z,0.60
2024-02-15T10:51:25.800Z,0.55
2024-02-15T10:54:05.043Z,0.50
2024-02-15T10:56:38.780Z,0.60
2024-02-15T10:59:15.150Z,0.50
2024-02-15T11:01:46.007Z,0.47
2024-02-15T11:04:20.708Z,0.60
2024-02-15T11:06:52.105Z,0.50
2024-02-15T11:09:20.837Z,0.52
2024-02-15T11:11:52.284Z,0.40
2024-02-15T11:14:27.779Z,0.50
2024-02-15T11:16:55.265Z,0.55
2024-02-15T11:19:47.399Z,0.50
2024-02-15T11:22:16.906Z,0.60
2024-02-15T11:24:49.227Z,0.30
2024-02-15T11:27:28.288Z,0.57
2024-02-15T11:30:11.501Z,0.50
2024-02-15T11:32:51.265Z,0.40
2024-02-15T11:35:27.166Z,0.40
2024-02-15T11:38:00.265Z,0.50
2024-02-15T11:40:30.596Z,0.40
2024-02-15T11:43:01.380Z,0.40
2024-02-15T11:45:35.836Z,0.43
2024-02-15T11:48:03.765Z,0.30
2024-02-15T11:50:38.940Z,0.30
2024-02-15T11:53:11.980Z,0.60
2024-02-15T11:55:41.860Z,0.43
2024-02-15T11:58:11.059Z,0.50
2024-02-15T12:00:57.953Z,0.60
2024-02-15T12:03:52.879Z,0.50
2024-02-15T12:06:48.304Z,0.30
2024-02-15T12:09:38.917Z,1.10
2024-02-15T12:12:25.722Z,0.60
2024-02-15T12:15:22.472Z,0.65
2024-02-15T12:18:08.952Z,0.57
2024-02-15T12:20:36.808Z,0.30
2024-02-15T12:23:08.676Z,0.70
2024-02-15T12:25:37.266Z,0.60
2024-02-15T12:28:06.460Z,0.50
2024-02-15T12:30:38.520Z,0.30
2024-02-15T12:33:15.112Z,0.80
2024-02-15T12:35:43.949Z,0.43
2024-02-15T12:38:18.491Z,0.50
2024-02-15T12:40:49.715Z,0.32
2024-02-15T12:43:17.884Z,0.70
2024-02-15T12:45:45.601Z,0.50
2024-02-15T12:48:13.429Z,0.45
2024-02-15T12:50:41.336Z,0.60
2024-02-15T12:53:09.757Z,0.47
2024-02-15T12:55:39.541Z,0.40
2024-02-15T12:58:15.148Z,0.40
2024-02-15T13:00:43.134Z,0.45
2024-02-15T13:03:12.703Z,0.50
2024-02-15T13:05:45.542Z,1.05
2024-02-15T13:08:15.802Z,0.50
2024-02-15T13:10:44.409Z,0.30
2024-02-15T13:13:12.544Z,0.50
2024-02-15T13:15:40.497Z,0.30
2024-02-15T13:18:11.885Z,0.40
2024-02-15T13:20:40.283Z,0.30
2024-02-15T13:23:11.225Z,0.47
2024-02-15T13:25:41.239Z,0.40
2024-02-15T13:28:11.672Z,0.50
2024-02-15T13:30:39.298Z,0.40
2024-02-15T13:33:07.639Z,0.40
2024-02-15T13:35:35.822Z,0.30
2024-02-15T13:38:03.931Z,0.45
2024-02-15T13:40:33.124Z,0.40
2024-02-15T13:43:05.736Z,0.70
2024-02-15T13:45:40.632Z,0.30
2024-02-15T13:48:10.217Z,0.30
2024-02-15T13:50:40.450Z,0.30
2024-02-15T13:53:10.804Z,0.80
2024-02-15T13:55:39.270Z,0.50
2024-02-15T13:58:09.532Z,0.40
2024-02-15T14:00:38.713Z,0.45
2024-02-15T14:03:08.087Z,0.40
2024-02-15T14:05:35.899Z,0.32
2024-02-15T14:08:07.158Z,0.40
2024-02-15T14:10:38.442Z,0.52
2024-02-15T14:13:10.817Z,0.50
2024-02-15T14:15:40.464Z,0.50
2024-02-15T14:18:15.945Z,0.35
2024-02-15T14:20:44.778Z,0.40
2024-02-15T14:23:15.906Z,0.40
2024-02-15T14:25:44.376Z,0.40
2024-02-15T14:28:11.998Z,0.40
2024-02-15T14:30:59.916Z,0.30
2024-02-15T14:33:33.486Z,0.50
2024-02-15T14:36:03.009Z,0.30
2024-02-15T14:38:31.111Z,0.40
2024-02-15T14:40:59.428Z,0.30
2024-02-15T14:43:28.738Z,0.40
2024-02-15T14:45:58.519Z,0.40
2024-02-15T14:48:27.203Z,0.65
2024-02-15T14:50:57.639Z,0.35
2024-02-15T14:53:26.169Z,0.50
2024-02-15T14:55:54.168Z,1.10
2024-02-15T14:58:23.958Z,0.40
2024-02-15T15:00:51.863Z,0.55
2024-02-15T15:03:33.204Z,0.40
2024-02-15T15:09:09.131Z,0.40
2024-02-15T15:11:55.239Z,0.40
2024-02-15T15:14:23.007Z,0.50
2024-02-15T15:16:50.688Z,0.40
2024-02-15T15:19:18.451Z,0.50
2024-02-15T15:21:46.349Z,1.15
2024-02-15T15:24:14.603Z,0.30
2024-02-15T15:26:42.585Z,0.50
2024-02-15T15:29:11.725Z,0.40
2024-02-15T15:31:39.939Z,0.40
2024-02-15T15:34:08.538Z,0.45
2024-02-15T15:36:36.277Z,0.60
2024-02-15T15:39:10.059Z,0.60
2024-02-15T15:41:39.118Z,0.65
2024-02-15T15:44:10.339Z,0.40
2024-02-15T15:46:38.036Z,0.50
2024-02-15T15:49:07.499Z,0.50
2024-02-15T15:51:35.270Z,0.50
2024-02-15T15:54:03.553Z,0.60
2024-02-15T15:56:34.516Z,0.70
2024-02-15T15:59:02.264Z,0.60
2024-02-15T16:01:30.823Z,0.50
2024-02-15T16:03:58.820Z,0.50
2024-02-15T16:06:26.699Z,0.60
2024-02-15T16:08:54.496Z,0.77
2024-02-15T16:11:22.304Z,0.70
2024-02-15T16:13:51.155Z,0.50
2024-02-15T16:16:18.753Z,0.60
2024-02-15T16:18:46.576Z,0.50
2024-02-15T16:21:14.446Z,0.70
2024-02-15T16:23:42.569Z,0.55
2024-02-15T16:26:10.954Z,0.40
2024-02-15T16:28:46.777Z,0.55
2024-02-15T16:31:15.218Z,0.70
2024-02-15T16:33:43.110Z,0.60
2024-02-15T16:36:10.935Z,0.60
2024-02-15T16:38:40.728Z,0.60
2024-02-15T16:41:09.184Z,0.55
2024-02-15T16:43:37.045Z,0.52
2024-02-15T16:46:05.083Z,0.80
2024-02-15T16:48:32.950Z,0.68
2024-02-15T16:51:03.583Z,0.60
2024-02-15T16:53:31.578Z,0.45
2024-02-15T16:55:59.227Z,0.60
2024-02-15T16:58:26.919Z,0.65
2024-02-15T17:00:55.281Z,0.60
2024-02-15T17:03:23.218Z,0.50
2024-02-15T17:05:51.267Z,0.50
2024-02-15T17:08:19.836Z,0.50
2024-02-15T17:10:48.081Z,0.50
2024-02-15T17:13:15.923Z,0.82
2024-02-15T17:15:44.749Z,0.60
2024-02-15T17:18:14.915Z,0.50
2024-02-15T17:20:45.881Z,0.50
2024-02-15T17:23:13.793Z,0.68
2024-02-15T17:25:41.926Z,0.90
2024-02-15T17:28:10.017Z,0.70
2024-02-15T17:30:38.185Z,0.77
2024-02-15T17:33:08.659Z,0.82
2024-02-15T17:35:38.078Z,0.63
2024-02-15T17:38:05.970Z,0.88
2024-02-15T17:40:39.170Z,0.88
2024-02-15T17:43:09.065Z,0.77
2024-02-15T17:45:38.585Z,0.98
2024-02-15T17:48:06.687Z,1.38
2024-02-15T17:50:34.660Z,0.93
2024-02-15T17:53:02.414Z,0.85
2024-02-15T17:55:30.128Z,0.70
2024-02-15T17:57:58.571Z,0.80
2024-02-15T18:00:33.885Z,0.70
2024-02-15T18:03:03.253Z,0.80
2024-02-15T18:05:32.601Z,1.45
2024-02-15T18:08:00.946Z,1.27
2024-02-15T18:10:28.801Z,1.10
2024-02-15T18:12:56.567Z,1.05
2024-02-15T18:15:26.125Z,0.88
2024-02-15T18:17:57.675Z,0.75
2024-02-15T18:20:27.363Z,1.00
2024-02-15T18:22:55.395Z,0.80
2024-02-15T18:25:23.215Z,0.70
2024-02-15T18:27:51.084Z,1.00
2024-02-15T18:30:20.272Z,0.98
2024-02-15T18:32:49.746Z,0.90
2024-02-15T18:35:18.972Z,0.85
2024-02-15T18:37:48.298Z,0.95
2024-02-15T18:40:23.186Z,1.00
2024-02-15T18:42:56.339Z,0.90
2024-02-15T18:45:24.403Z,0.60
2024-02-15T18:47:53.264Z,0.80
2024-02-15T18:50:23.655Z,1.13
2024-02-15T18:52:52.171Z,0.80
2024-02-15T18:55:21.135Z,0.73
2024-02-15T18:57:51.995Z,0.70
2024-02-15T19:00:31.705Z,0.80
2024-02-15T19:03:05.827Z,1.02
2024-02-15T19:05:33.581Z,0.77
2024-02-15T19:08:01.722Z,0.80
2024-02-15T19:10:29.642Z,1.10
2024-02-15T19:12:57.353Z,1.05
2024-02-15T19:15:25.501Z,0.90
2024-02-15T19:17:54.359Z,1.23
2024-02-15T19:20:22.524Z,1.00
2024-02-15T19:22:50.564Z,1.30
2024-02-15T19:25:22.614Z,1.00
2024-02-15T19:27:51.569Z,1.00
2024-02-15T19:30:20.382Z,1.17
2024-02-15T19:32:50.817Z,1.15
2024-02-15T19:35:20.749Z,1.00
2024-02-15T19:37:49.268Z,0.90
2024-02-15T19:40:20.675Z,1.08
2024-02-15T19:42:50.375Z,1.58
2024-02-15T19:45:22.868Z,0.93
2024-02-15T19:47:53.078Z,1.33
2024-02-15T19:50:28.204Z,0.80
2024-02-15T19:52:58.832Z,1.27
2024-02-15T19:55:27.855Z,1.45
2024-02-15T19:57:57.924Z,1.42
2024-02-15T20:00:27.335Z,1.35
2024-02-15T20:02:55.656Z,1.58
2024-02-15T20:05:28.177Z,1.00
2024-02-15T20:07:56.141Z,1.30
2024-02-15T20:10:24.022Z,1.10
2024-02-15T20:12:52.789Z,1.30
2024-02-15T20:15:21.119Z,1.20
2024-02-15T20:17:49.236Z,1.38
2024-02-15T20:20:19.972Z,1.27
2024-02-15T20:22:48.356Z,0.90
2024-02-15T20:25:16.426Z,1.30
2024-02-15T20:27:44.554Z,0.93
2024-02-15T20:30:13.755Z,0.98
2024-02-15T20:32:41.846Z,0.80
2024-02-15T20:35:10.206Z,1.20
2024-02-15T20:37:38.386Z,0.98
2024-02-15T20:40:07.809Z,1.10
2024-02-15T20:42:36.569Z,0.80
2024-02-15T20:45:06.127Z,0.80
2024-02-15T20:47:37.354Z,0.80
2024-02-15T20:50:06.679Z,0.90
2024-02-15T20:52:35.005Z,1.00
2024-02-15T20:55:03.069Z,1.00
2024-02-15T20:57:31.325Z,1.00
2024-02-15T20:59:59.269Z,1.08
2024-02-15T21:02:32.178Z,0.80
2024-02-15T21:05:01.244Z,1.50
2024-02-15T21:07:29.252Z,1.40
2024-02-15T21:10:01.505Z,0.75
2024-02-15T21:12:29.618Z,0.90
2024-02-15T21:14:57.538Z,1.08
2024-02-15T21:17:25.778Z,1.10
2024-02-15T21:19:56.205Z,1.00
2024-02-15T21:22:24.148Z,1.50
2024-02-15T21:24:52.091Z,1.60
2024-02-15T21:27:20.235Z,1.15
2024-02-15T21:29:49.036Z,1.33
2024-02-15T21:32:18.027Z,1.83
2024-02-15T21:34:46.212Z,1.40
2024-02-15T21:37:15.763Z,1.75
2024-02-15T21:39:48.225Z,1.15
2024-02-15T21:42:17.131Z,1.20
2024-02-15T21:44:46.237Z,1.08
2024-02-15T21:47:15.954Z,1.00
2024-02-15T21:49:44.221Z,1.23
2024-02-15T21:52:12.906Z,1.58
2024-02-15T21:54:44.338Z,1.00
2024-02-15T21:57:13.952Z,1.27
2024-02-15T21:59:50.775Z,1.38
2024-02-15T22:02:32.019Z,1.02
2024-02-15T22:04:59.957Z,1.40
2024-02-15T22:07:27.768Z,1.45
2024-02-15T22:09:55.604Z,1.00
2024-02-15T22:12:23.531Z,1.30
2024-02-15T22:14:54.842Z,1.55
2024-02-15T22:17:23.637Z,2.15
2024-02-15T22:20:11.303Z,1.48
2024-02-15T22:22:52.588Z,1.60
2024-02-15T22:25:20.856Z,1.38
2024-02-15T22:27:48.816Z,1.30
2024-02-15T22:30:19.139Z,1.70
2024-02-15T22:32:48.005Z,1.30
2024-02-15T22:35:16.395Z,1.75
2024-02-15T22:37:44.737Z,1.58
2024-02-15T22:40:13.048Z,1.90
2024-02-15T22:42:41.029Z,1.40
2024-02-15T22:45:11.198Z,1.63
2024-02-15T22:47:39.428Z,1.10
2024-02-15T22:50:07.598Z,0.98
2024-02-15T22:52:35.841Z,1.40
2024-02-15T22:55:04.973Z,1.95
2024-02-15T22:57:33.276Z,1.00
2024-02-15T23:00:02.001Z,0.90
2024-02-15T23:02:30.397Z,1.23
2024-02-15T23:05:01.045Z,1.30
2024-02-15T23:07:29.732Z,1.52
2024-02-15T23:09:57.505Z,1.00
2024-02-15T23:12:26.102Z,1.25
2024-02-15T23:15:03.371Z,1.50
2024-02-15T23:17:32.361Z,1.30
2024-02-15T23:20:00.294Z,1.27
2024-02-15T23:22:28.503Z,1.00
2024-02-15T23:24:58.207Z,1.48
2024-02-15T23:27:26.452Z,1.35
2024-02-15T23:29:54.788Z,1.08
2024-02-15T23:32:23.098Z,1.15
2024-02-15T23:34:51.552Z,1.10
2024-02-15T23:37:37.616Z,1.40
2024-02-15T23:40:24.160Z,0.70
2024-02-15T23:42:55.536Z,1.10
2024-02-15T23:45:24.197Z,1.17
2024-02-15T23:47:52.761Z,1.38
2024-02-15T23:50:21.322Z,1.00
2024-02-15T23:52:49.562Z,0.80
2024-02-15T23:55:17.465Z,0.98
2024-02-15T23:57:47.428Z,1.00
